Time;durP1;ratioP1;P1;durP2;ratioP2;P2;SDS_P1;SDS_P2;PMS_P1;PMS_P2;Temp;Humidity;BMP_temperature;BMP_pressure;BME280_temperature;BME280_humidity;BME280_pressure;Samples;Min_cycle;Max_cycle;Signal;HPM_P1;HPM_P2
2021/06/11 00:01:56;;;;;;;2.83;1.47;;;;;;;;;;6215405;23;20040;-52
2021/06/11 00:04:23;;;;;;;2.20;1.00;;;;;;;;;;6215528;23;20001;-52
2021/06/11 00:06:49;;;;;;;8.67;1.17;;;;;;;;;;6215326;23;20009;-52
2021/06/11 00:09:17;;;;;;;4.93;1.30;;;;;;;;;;6215391;23;20083;-52
2021/06/11 00:11:45;;;;;;;5.93;1.03;;;;;;;;;;6215370;23;20009;-52
2021/06/11 00:14:12;;;;;;;3.43;1.10;;;;;;;;;;6215250;23;20067;-52
2021/06/11 00:16:39;;;;;;;11.87;1.10;;;;;;;;;;6215306;23;20028;-52
2021/06/11 00:19:14;;;;;;;5.80;1.03;;;;;;;;;;6215212;23;20084;-52
2021/06/11 00:21:42;;;;;;;3.33;1.30;;;;;;;;;;6215471;23;20072;-52
2021/06/11 00:24:11;;;;;;;5.40;1.40;;;;;;;;;;6215165;23;20005;-52
2021/06/11 00:26:38;;;;;;;3.80;1.20;;;;;;;;;;6215378;23;20000;-52
2021/06/11 00:29:05;;;;;;;2.80;1.20;;;;;;;;;;6215206;23;20015;-52
2021/06/11 00:31:32;;;;;;;3.53;0.40;;;;;;;;;;6215249;23;20537;-52
2021/06/11 00:33:59;;;;;;;1.23;0.40;;;;;;;;;;6215325;23;20059;-52
2021/06/11 00:36:25;;;;;;;0.70;0.40;;;;;;;;;;6215271;23;20364;-53
2021/06/11 00:38:52;;;;;;;9.43;1.20;;;;;;;;;;6215116;23;20054;-52
2021/06/11 00:41:19;;;;;;;0.63;0.27;;;;;;;;;;6215186;23;20013;-52
2021/06/11 00:43:46;;;;;;;1.00;0.37;;;;;;;;;;6214863;23;20371;-52
2021/06/11 00:46:12;;;;;;;1.03;0.43;;;;;;;;;;6215355;23;20000;-52
2021/06/11 00:48:39;;;;;;;0.60;0.30;;;;;;;;;;6215267;23;20027;-52
2021/06/11 00:51:06;;;;;;;2.93;0.37;;;;;;;;;;6215135;23;20474;-52
2021/06/11 00:53:33;;;;;;;1.60;0.40;;;;;;;;;;6214926;23;20096;-51
2021/06/11 00:59:03;;;;;;;0.73;0.20;;;;;;;;;;6215152;23;20023;-53
2021/06/11 01:01:37;;;;;;;2.30;1.07;;;;;;;;;;6214946;23;20071;-52
2021/06/11 01:04:05;;;;;;;3.15;1.15;;;;;;;;;;6215145;23;20012;-52
2021/06/11 01:06:44;;;;;;;;;;;;;;;;;;;;;
2021/06/11 01:09:18;;;;;;;2.70;1.30;;;;;;;;;;6205338;23;20095;-52
2021/06/11 01:11:46;;;;;;;5.35;0.82;;;;;;;;;;6213404;23;20472;-52
2021/06/11 01:14:18;;;;;;;3.37;0.90;;;;;;;;;;6215063;23;20004;-52
2021/06/11 01:16:46;;;;;;;2.83;1.10;;;;;;;;;;6215116;23;20004;-53
2021/06/11 01:19:14;;;;;;;4.60;0.90;;;;;;;;;;6214898;23;20008;-52
2021/06/11 01:21:57;;;;;;;1.90;1.00;;;;;;;;;;6215062;23;20011;-52
2021/06/11 01:24:32;;;;;;;31.37;3.53;;;;;;;;;;6214885;23;20428;-53
2021/06/11 01:27:00;;;;;;;8.55;0.90;;;;;;;;;;6215027;23;20000;-52
2021/06/11 01:29:42;;;;;;;0.63;0.43;;;;;;;;;;6214915;23;20428;-53
2021/06/11 01:32:17;;;;;;;1.73;0.83;;;;;;;;;;6214913;23;20016;-52
2021/06/11 01:34:44;;;;;;;3.57;1.50;;;;;;;;;;6215076;23;20008;-52
2021/06/11 01:37:16;;;;;;;2.00;1.30;;;;;;;;;;6214968;23;20023;-53
2021/06/11 01:39:49;;;;;;;6.27;2.83;;;;;;;;;;6215638;23;19996;-52
2021/06/11 01:42:20;;;;;;;8.13;3.30;;;;;;;;;;6216705;23;20043;-52
2021/06/11 01:44:49;;;;;;;4.37;1.50;;;;;;;;;;6216256;23;20024;-53
2021/06/11 01:47:16;;;;;;;6.57;3.67;;;;;;;;;;6216703;23;20428;-52
2021/06/11 01:49:45;;;;;;;2.83;1.40;;;;;;;;;;6216745;23;20415;-52
2021/06/11 01:52:12;;;;;;;6.07;1.43;;;;;;;;;;6216780;23;20043;-52
2021/06/11 01:54:45;;;;;;;3.13;1.27;;;;;;;;;;6216577;23;20371;-52
2021/06/11 01:57:15;;;;;;;1.97;1.10;;;;;;;;;;6216681;23;20004;-53
2021/06/11 01:59:48;;;;;;;6.67;1.60;;;;;;;;;;6213950;23;20004;-53
2021/06/11 02:02:16;;;;;;;7.37;1.43;;;;;;;;;;6216345;23;20001;-52
2021/06/11 02:04:48;;;;;;;4.53;1.20;;;;;;;;;;6216427;23;20328;-52
2021/06/11 02:07:28;;;;;;;4.73;2.67;;;;;;;;;;6215503;23;20028;-53
2021/06/11 02:10:06;;;;;;;5.20;2.80;;;;;;;;;;6216548;23;20007;-52
2021/06/11 02:12:33;;;;;;;2.87;1.80;;;;;;;;;;6216070;23;20070;-52
2021/06/11 02:15:01;;;;;;;4.83;1.50;;;;;;;;;;6216482;23;20032;-53
2021/06/11 02:17:28;;;;;;;2.90;0.90;;;;;;;;;;6216515;23;20004;-52
2021/06/11 02:20:06;;;;;;;1.60;0.70;;;;;;;;;;6216462;23;19996;-52
2021/06/11 02:22:37;;;;;;;4.27;0.43;;;;;;;;;;6216130;23;20009;-53
2021/06/11 02:25:11;;;;;;;3.93;1.33;;;;;;;;;;6216163;23;20011;-52
2021/06/11 02:27:39;;;;;;;5.30;1.17;;;;;;;;;;6216694;23;20011;-52
2021/06/11 02:30:09;;;;;;;2.50;1.07;;;;;;;;;;6216261;23;20119;-52
2021/06/11 02:32:37;;;;;;;1.33;0.50;;;;;;;;;;6216191;23;20043;-52
2021/06/11 02:35:05;;;;;;;3.13;1.33;;;;;;;;;;6216331;23;20441;-52
2021/06/11 02:37:32;;;;;;;2.47;1.00;;;;;;;;;;6216245;23;20067;-53
2021/06/11 02:39:58;;;;;;;3.17;0.80;;;;;;;;;;6216274;23;20371;-52
2021/06/11 02:42:26;;;;;;;2.80;0.90;;;;;;;;;;6216150;23;20000;-52
2021/06/11 02:44:54;;;;;;;1.63;0.97;;;;;;;;;;6215843;23;20447;-52
2021/06/11 02:47:30;;;;;;;2.93;1.00;;;;;;;;;;6216221;23;20028;-53
2021/06/11 02:50:03;;;;;;;2.03;0.90;;;;;;;;;;6216095;23;20155;-52
2021/06/11 02:52:31;;;;;;;1.27;0.70;;;;;;;;;;6215958;23;20332;-52
2021/06/11 02:55:00;;;;;;;1.73;0.83;;;;;;;;;;6215990;23;20032;-52
2021/06/11 02:57:40;;;;;;;2.87;1.03;;;;;;;;;;6216036;23;20031;-53
2021/06/11 03:00:09;;;;;;;6.97;0.77;;;;;;;;;;6216424;23;20008;-52
2021/06/11 03:02:58;;;;;;;0.97;0.60;;;;;;;;;;6215912;23;20027;-52
2021/06/11 03:05:25;;;;;;;1.40;0.70;;;;;;;;;;6200829;23;20012;-52
2021/06/11 03:07:55;;;;;;;2.30;0.80;;;;;;;;;;6215889;23;20008;-52
2021/06/11 03:10:31;;;;;;;2.27;0.90;;;;;;;;;;6215896;23;20423;-52
2021/06/11 03:13:00;;;;;;;2.43;0.87;;;;;;;;;;6215835;23;20083;-52
2021/06/11 03:15:29;;;;;;;0.97;0.60;;;;;;;;;;6215822;23;20072;-53
2021/06/11 03:17:58;;;;;;;1.57;0.70;;;;;;;;;;6215826;23;20035;-52
2021/06/11 03:20:26;;;;;;;0.83;0.47;;;;;;;;;;6215818;23;20301;-52
2021/06/11 03:23:00;;;;;;;2.70;0.50;;;;;;;;;;6215762;23;20009;-53
2021/06/11 03:25:29;;;;;;;2.20;0.50;;;;;;;;;;6215811;23;20442;-52
2021/06/11 03:27:58;;;;;;;0.60;0.50;;;;;;;;;;6215864;23;20426;-52
2021/06/11 03:30:26;;;;;;;1.00;0.40;;;;;;;;;;6215854;23;20061;-53
2021/06/11 03:32:56;;;;;;;2.90;0.63;;;;;;;;;;6215538;23;20020;-53
2021/06/11 03:35:25;;;;;;;1.93;0.60;;;;;;;;;;6215685;23;20323;-53
2021/06/11 03:37:54;;;;;;;0.97;0.50;;;;;;;;;;6215694;23;20005;-53
2021/06/11 03:40:25;;;;;;;3.60;0.60;;;;;;;;;;6215591;23;20337;-53
2021/06/11 03:42:55;;;;;;;2.57;0.40;;;;;;;;;;6215972;23;20009;-53
2021/06/11 03:45:23;;;;;;;0.20;0.20;;;;;;;;;;6215337;22;20020;-54
2021/06/11 03:47:51;;;;;;;1.60;0.67;;;;;;;;;;6215547;23;20400;-54
2021/06/11 03:50:20;;;;;;;1.50;0.60;;;;;;;;;;6215621;23;20312;-54
2021/06/11 03:52:48;;;;;;;3.60;0.73;;;;;;;;;;6215540;23;20016;-54
2021/06/11 03:55:26;;;;;;;5.07;1.07;;;;;;;;;;6215504;23;20000;-55
2021/06/11 03:57:54;;;;;;;1.57;0.60;;;;;;;;;;6215567;23;20009;-55
2021/06/11 04:00:22;;;;;;;0.83;0.60;;;;;;;;;;6215875;23;19996;-55
2021/06/11 04:02:49;;;;;;;0.93;0.67;;;;;;;;;;6215507;23;20005;-55
2021/06/11 04:05:16;;;;;;;1.23;0.67;;;;;;;;;;6215372;23;20367;-54
2021/06/11 04:07:52;;;;;;;1.30;0.60;;;;;;;;;;6215462;23;20043;-54
2021/06/11 04:10:35;;;;;;;0.50;0.40;;;;;;;;;;6215440;23;20328;-54
2021/06/11 04:13:11;;;;;;;1.13;0.47;;;;;;;;;;6215176;23;20340;-54
2021/06/11 04:15:41;;;;;;;0.80;0.53;;;;;;;;;;6215353;23;20028;-54
2021/06/11 04:18:11;;;;;;;1.30;0.70;;;;;;;;;;6215310;23;20075;-55
2021/06/11 04:20:39;;;;;;;2.90;1.10;;;;;;;;;;6215372;23;20008;-54
2021/06/11 04:23:07;;;;;;;1.37;0.80;;;;;;;;;;6215297;23;20309;-54
2021/06/11 04:25:35;;;;;;;2.00;0.63;;;;;;;;;;6215393;23;20005;-54
2021/06/11 04:28:03;;;;;;;1.67;0.60;;;;;;;;;;6215371;23;20424;-55
2021/06/11 04:30:30;;;;;;;2.07;1.07;;;;;;;;;;6215254;23;20015;-55
2021/06/11 04:32:57;;;;;;;4.37;1.70;;;;;;;;;;6215066;23;20493;-54
2021/06/11 04:35:33;;;;;;;1.57;0.90;;;;;;;;;;6215181;23;20132;-55
2021/06/11 04:37:59;;;;;;;2.67;1.07;;;;;;;;;;6215335;23;20012;-55
2021/06/11 04:40:26;;;;;;;3.43;0.60;;;;;;;;;;6215206;23;20052;-54
2021/06/11 04:42:53;;;;;;;1.97;0.93;;;;;;;;;;6215147;23;20440;-55
2021/06/11 04:45:20;;;;;;;5.17;0.80;;;;;;;;;;6214898;23;20091;-56
2021/06/11 04:47:47;;;;;;;1.73;0.70;;;;;;;;;;6215185;23;20384;-56
2021/06/11 04:50:13;;;;;;;2.43;0.60;;;;;;;;;;6215351;23;20428;-55
2021/06/11 04:52:40;;;;;;;3.50;0.63;;;;;;;;;;6214951;23;20016;-56
2021/06/11 04:55:07;;;;;;;2.50;0.70;;;;;;;;;;6215271;23;20012;-56
2021/06/11 04:57:34;;;;;;;1.33;0.70;;;;;;;;;;6215162;23;20004;-56
2021/06/11 05:00:01;;;;;;;2.10;0.70;;;;;;;;;;6215027;23;20063;-54
2021/06/11 05:02:28;;;;;;;1.03;0.60;;;;;;;;;;6215149;23;20087;-54
2021/06/11 05:04:55;;;;;;;2.20;0.83;;;;;;;;;;6215123;23;20005;-54
2021/06/11 05:07:21;;;;;;;1.50;0.53;;;;;;;;;;6215183;23;20008;-54
2021/06/11 05:09:48;;;;;;;1.60;0.33;;;;;;;;;;6215061;23;20005;-54
2021/06/11 05:12:15;;;;;;;0.73;0.53;;;;;;;;;;6214920;23;20034;-54
2021/06/11 05:14:42;;;;;;;1.20;0.47;;;;;;;;;;6215660;23;20001;-54
2021/06/11 05:17:09;;;;;;;1.73;0.60;;;;;;;;;;6217033;23;20416;-54
2021/06/11 05:19:36;;;;;;;1.53;0.60;;;;;;;;;;6217047;23;20055;-53
2021/06/11 05:22:03;;;;;;;1.67;0.70;;;;;;;;;;6216988;23;20001;-53
2021/06/11 05:24:29;;;;;;;1.50;0.63;;;;;;;;;;6216805;23;20004;-53
2021/06/11 05:26:56;;;;;;;0.80;0.50;;;;;;;;;;6216778;23;20280;-53
2021/06/11 05:29:23;;;;;;;2.00;0.70;;;;;;;;;;6216685;23;20016;-53
2021/06/11 05:31:50;;;;;;;4.00;0.53;;;;;;;;;;6216943;23;20008;-53
2021/06/11 05:34:17;;;;;;;1.37;0.60;;;;;;;;;;6216698;23;20072;-53
2021/06/11 05:36:44;;;;;;;3.60;0.60;;;;;;;;;;6216810;23;20027;-53
2021/06/11 05:39:11;;;;;;;0.60;0.50;;;;;;;;;;6216900;23;20398;-53
2021/06/11 05:41:38;;;;;;;0.53;0.33;;;;;;;;;;6216831;23;20024;-53
2021/06/11 05:44:05;;;;;;;0.97;0.40;;;;;;;;;;6216456;22;20908;-53
2021/06/11 05:46:32;;;;;;;1.20;0.40;;;;;;;;;;6216939;23;20020;-52
2021/06/11 05:49:05;;;;;;;1.47;0.40;;;;;;;;;;6216613;23;20004;-53
2021/06/11 05:51:31;;;;;;;0.60;0.50;;;;;;;;;;6216780;23;20005;-53
2021/06/11 05:53:58;;;;;;;1.13;0.57;;;;;;;;;;6216634;23;20013;-53
2021/06/11 05:56:27;;;;;;;1.67;0.57;;;;;;;;;;6216799;23;20008;-53
2021/06/11 05:58:53;;;;;;;1.90;0.60;;;;;;;;;;6216749;23;20007;-53
2021/06/11 06:01:20;;;;;;;0.60;0.40;;;;;;;;;;6216648;23;20003;-53
2021/06/11 06:03:47;;;;;;;2.40;0.60;;;;;;;;;;6216502;23;20029;-53
2021/06/11 06:06:14;;;;;;;1.13;0.70;;;;;;;;;;6216725;23;20000;-54
2021/06/11 06:08:41;;;;;;;3.23;0.70;;;;;;;;;;6216665;23;20025;-54
2021/06/11 06:11:07;;;;;;;1.00;0.53;;;;;;;;;;6216634;23;20076;-54
2021/06/11 06:13:34;;;;;;;1.43;0.80;;;;;;;;;;6216355;23;20023;-54
2021/06/11 06:16:01;;;;;;;0.80;0.60;;;;;;;;;;6216575;23;20001;-54
2021/06/11 06:18:28;;;;;;;1.27;0.73;;;;;;;;;;6216584;23;20011;-54
2021/06/11 06:20:55;;;;;;;1.67;0.70;;;;;;;;;;6216370;23;20009;-55
2021/06/11 06:23:22;;;;;;;2.27;1.07;;;;;;;;;;6216490;23;20352;-55
2021/06/11 06:25:49;;;;;;;2.63;1.00;;;;;;;;;;6216163;23;20032;-55
2021/06/11 06:28:15;;;;;;;4.03;0.90;;;;;;;;;;6216332;23;20088;-55
2021/06/11 06:30:43;;;;;;;1.77;1.20;;;;;;;;;;6214806;23;20332;-54
2021/06/11 06:33:10;;;;;;;6.23;1.30;;;;;;;;;;6216142;23;20073;-54
2021/06/11 06:35:37;;;;;;;6.23;1.10;;;;;;;;;;6216211;23;20071;-54
2021/06/11 06:38:04;;;;;;;2.87;1.10;;;;;;;;;;6216228;23;20004;-54
2021/06/11 06:40:31;;;;;;;4.23;1.00;;;;;;;;;;6216113;23;20062;-54
2021/06/11 06:42:58;;;;;;;4.30;0.90;;;;;;;;;;6216212;23;20004;-54
2021/06/11 06:45:25;;;;;;;2.60;0.77;;;;;;;;;;6216048;23;20050;-54
2021/06/11 06:47:51;;;;;;;2.33;0.83;;;;;;;;;;6216188;23;20332;-55
2021/06/11 06:50:20;;;;;;;5.47;1.10;;;;;;;;;;6216138;23;20016;-55
2021/06/11 06:52:47;;;;;;;6.53;1.00;;;;;;;;;;6215922;23;20462;-55
2021/06/11 06:55:14;;;;;;;6.90;1.30;;;;;;;;;;6216139;23;20431;-56
2021/06/11 06:57:41;;;;;;;1.93;0.80;;;;;;;;;;6216046;23;20011;-55
2021/06/11 07:00:09;;;;;;;4.10;1.10;;;;;;;;;;6216128;23;20004;-53
2021/06/11 07:02:36;;;;;;;1.47;0.63;;;;;;;;;;6215980;23;20011;-54
2021/06/11 07:05:03;;;;;;;2.13;0.80;;;;;;;;;;6216059;23;20008;-53
2021/06/11 07:07:30;;;;;;;1.60;0.73;;;;;;;;;;6216361;23;20011;-53
2021/06/11 07:09:57;;;;;;;0.93;0.60;;;;;;;;;;6215988;23;20028;-53
2021/06/11 07:12:26;;;;;;;5.37;0.90;;;;;;;;;;6215855;23;20016;-53
2021/06/11 07:14:53;;;;;;;1.93;0.60;;;;;;;;;;6215923;23;20031;-53
2021/06/11 07:17:20;;;;;;;0.80;0.53;;;;;;;;;;6215881;23;20066;-53
2021/06/11 07:19:47;;;;;;;1.60;0.70;;;;;;;;;;6215931;23;20313;-53
2021/06/11 07:22:14;;;;;;;0.90;0.50;;;;;;;;;;6215954;23;20412;-53
2021/06/11 07:24:41;;;;;;;1.23;0.53;;;;;;;;;;6215791;23;20331;-53
2021/06/11 07:27:08;;;;;;;1.53;0.73;;;;;;;;;;6215865;23;20001;-53
2021/06/11 07:29:40;;;;;;;1.30;0.50;;;;;;;;;;6215786;23;20008;-53
2021/06/11 07:32:07;;;;;;;2.40;0.70;;;;;;;;;;6215607;23;20005;-53
2021/06/11 07:34:34;;;;;;;1.03;0.50;;;;;;;;;;6215738;23;20059;-53
2021/06/11 07:37:01;;;;;;;1.13;0.43;;;;;;;;;;6215339;23;20363;-53
2021/06/11 07:39:27;;;;;;;1.53;0.70;;;;;;;;;;6215635;23;20331;-53
2021/06/11 07:41:54;;;;;;;1.77;0.60;;;;;;;;;;6215431;23;20379;-53
2021/06/11 07:44:25;;;;;;;1.77;0.57;;;;;;;;;;6215374;22;20012;-53
2021/06/11 07:46:51;;;;;;;1.33;0.50;;;;;;;;;;6215660;23;20001;-52
2021/06/11 07:49:18;;;;;;;0.70;0.43;;;;;;;;;;6215652;23;20001;-53
2021/06/11 07:51:45;;;;;;;1.20;0.60;;;;;;;;;;6215399;23;20028;-53
2021/06/11 07:54:12;;;;;;;0.40;0.27;;;;;;;;;;6215554;23;20415;-53
2021/06/11 07:56:39;;;;;;;0.50;0.30;;;;;;;;;;6215566;23;20004;-53
2021/06/11 07:59:05;;;;;;;0.77;0.47;;;;;;;;;;6215563;23;20000;-53
2021/06/11 08:01:33;;;;;;;0.87;0.50;;;;;;;;;;6215400;23;20005;-53
2021/06/11 08:04:00;;;;;;;1.60;0.50;;;;;;;;;;6215453;23;20005;-53
2021/06/11 08:06:27;;;;;;;1.23;0.47;;;;;;;;;;6215507;23;19996;-53
2021/06/11 08:08:54;;;;;;;1.00;0.57;;;;;;;;;;6215354;23;20004;-53
2021/06/11 08:11:20;;;;;;;0.40;0.40;;;;;;;;;;6215387;23;20000;-53
2021/06/11 08:13:47;;;;;;;1.13;0.50;;;;;;;;;;6215273;23;20309;-53
2021/06/11 08:16:14;;;;;;;1.90;0.43;;;;;;;;;;6215486;23;20005;-53
2021/06/11 08:18:41;;;;;;;1.47;1.07;;;;;;;;;;6215490;23;20005;-53
2021/06/11 08:21:08;;;;;;;0.80;0.40;;;;;;;;;;6215445;23;20005;-53
2021/06/11 08:23:35;;;;;;;2.37;0.67;;;;;;;;;;6215264;23;20012;-53
2021/06/11 08:26:02;;;;;;;1.03;0.53;;;;;;;;;;6215345;23;20008;-53
2021/06/11 08:28:29;;;;;;;0.93;0.50;;;;;;;;;;6215222;23;20379;-53
2021/06/11 08:30:55;;;;;;;0.67;0.50;;;;;;;;;;6215388;23;20062;-53
2021/06/11 08:33:22;;;;;;;1.27;0.50;;;;;;;;;;6215270;23;20012;-52
2021/06/11 08:35:49;;;;;;;0.80;0.50;;;;;;;;;;6215250;23;19997;-53
2021/06/11 08:38:16;;;;;;;1.50;0.57;;;;;;;;;;6215210;23;20001;-52
2021/06/11 08:40:44;;;;;;;3.17;0.60;;;;;;;;;;6215076;23;20004;-52
2021/06/11 08:43:10;;;;;;;2.53;0.70;;;;;;;;;;6215237;23;20360;-52
2021/06/11 08:45:37;;;;;;;1.10;0.50;;;;;;;;;;6214800;22;20012;-52
2021/06/11 08:48:04;;;;;;;0.50;0.40;;;;;;;;;;6215385;23;20027;-52
2021/06/11 08:50:32;;;;;;;1.20;0.60;;;;;;;;;;6217243;23;20001;-52
2021/06/11 08:52:59;;;;;;;0.93;0.67;;;;;;;;;;6217094;23;20016;-52
2021/06/11 08:55:27;;;;;;;1.17;0.70;;;;;;;;;;6217225;23;20005;-51
2021/06/11 08:57:55;;;;;;;2.07;0.60;;;;;;;;;;6217209;23;20187;-52
2021/06/11 09:00:21;;;;;;;0.90;0.50;;;;;;;;;;6217233;23;20316;-52
2021/06/11 09:03:34;;;;;;;1.77;0.77;;;;;;;;;;6217100;23;20084;-52
2021/06/11 09:06:01;;;;;;;0.97;0.47;;;;;;;;;;6095962;23;20026;-51
2021/06/11 09:08:28;;;;;;;1.73;0.60;;;;;;;;;;6095827;23;20392;-52
2021/06/11 09:11:22;;;;;;;0.60;0.40;;;;;;;;;;6161507;23;20375;-52
2021/06/11 09:13:51;;;;;;;3.63;0.83;;;;;;;;;;6216960;23;20406;-52
2021/06/11 09:16:26;;;;;;;3.63;1.03;;;;;;;;;;6217111;23;20335;-52
2021/06/11 09:18:54;;;;;;;4.22;0.80;;;;;;;;;;6217070;23;20019;-52
2021/06/11 09:21:43;;;;;;;0.97;0.50;;;;;;;;;;6217053;23;20004;-52
2021/06/11 09:24:28;;;;;;;1.67;0.80;;;;;;;;;;6217038;23;20001;-52
2021/06/11 09:26:58;;;;;;;1.70;0.80;;;;;;;;;;6217012;23;20016;-53
2021/06/11 09:29:25;;;;;;;3.47;0.70;;;;;;;;;;6216967;23;20432;-52
2021/06/11 09:31:52;;;;;;;1.60;0.90;;;;;;;;;;6216887;23;20023;-52
2021/06/11 09:34:24;;;;;;;1.53;0.70;;;;;;;;;;6216901;23;20012;-52
2021/06/11 09:37:04;;;;;;;2.87;0.93;;;;;;;;;;6216881;23;20004;-52
2021/06/11 09:39:49;;;;;;;1.37;0.80;;;;;;;;;;6216744;23;20092;-51
2021/06/11 09:42:17;;;;;;;4.22;1.23;;;;;;;;;;6216638;23;20000;-52
2021/06/11 09:45:10;;;;;;;3.03;1.47;;;;;;;;;;6216498;22;20016;-52
2021/06/11 09:47:37;;;;;;;2.60;0.87;;;;;;;;;;6211726;23;20371;-52
2021/06/11 09:50:05;;;;;;;1.57;0.80;;;;;;;;;;6215200;23;20432;-52
2021/06/11 09:52:36;;;;;;;2.43;1.30;;;;;;;;;;6216537;23;20008;-51
2021/06/11 09:55:06;;;;;;;4.57;1.00;;;;;;;;;;6216658;23;20008;-52
2021/06/11 09:57:36;;;;;;;1.87;0.80;;;;;;;;;;6217149;23;20382;-52
2021/06/11 10:00:04;;;;;;;2.70;0.90;;;;;;;;;;6216282;23;20380;-52
2021/06/11 10:02:35;;;;;;;1.47;0.80;;;;;;;;;;6216571;23;20004;-52
2021/06/11 10:05:02;;;;;;;2.87;1.10;;;;;;;;;;6216599;23;20378;-52
2021/06/11 10:07:30;;;;;;;2.67;1.07;;;;;;;;;;6216660;23;20005;-52
2021/06/11 10:09:57;;;;;;;1.40;0.83;;;;;;;;;;6216608;23;20000;-52
2021/06/11 10:12:24;;;;;;;2.93;1.00;;;;;;;;;;6216324;23;20011;-52
2021/06/11 10:14:51;;;;;;;1.27;0.80;;;;;;;;;;6216464;23;20007;-52
2021/06/11 10:17:18;;;;;;;0.83;0.63;;;;;;;;;;6216610;23;20063;-52
2021/06/11 10:19:44;;;;;;;1.50;0.80;;;;;;;;;;6216571;23;20028;-52
2021/06/11 10:22:11;;;;;;;2.83;0.93;;;;;;;;;;6216313;23;20340;-52
2021/06/11 10:24:39;;;;;;;1.53;0.63;;;;;;;;;;6216356;23;20047;-52
2021/06/11 10:27:06;;;;;;;3.87;1.10;;;;;;;;;;6216463;23;20005;-52
2021/06/11 10:29:34;;;;;;;1.53;0.87;;;;;;;;;;6216407;23;20156;-52
2021/06/11 10:32:02;;;;;;;1.17;0.80;;;;;;;;;;6216361;23;20005;-52
2021/06/11 10:34:49;;;;;;;1.53;0.60;;;;;;;;;;6216327;23;20083;-52
2021/06/11 10:37:34;;;;;;;4.07;0.90;;;;;;;;;;6216422;23;20001;-52
2021/06/11 10:40:17;;;;;;;1.45;0.65;;;;;;;;;;6216106;23;20016;-52
2021/06/11 10:42:44;;;;;;;2.30;1.03;;;;;;;;;;6216158;23;20027;-52
2021/06/11 10:45:15;;;;;;;1.40;0.80;;;;;;;;;;6215817;23;20341;-52
2021/06/11 10:47:59;;;;;;;2.73;1.10;;;;;;;;;;6216370;23;20032;-52
2021/06/11 10:50:34;;;;;;;2.30;1.02;;;;;;;;;;6216208;23;20001;-52
2021/06/11 10:53:27;;;;;;;7.18;1.38;;;;;;;;;;6216058;23;20012;-51
2021/06/11 10:56:12;;;;;;;1.23;0.80;;;;;;;;;;6204121;23;19996;-52
2021/06/11 10:58:38;;;;;;;1.43;0.80;;;;;;;;;;6216080;23;20078;-52
2021/06/11 11:01:24;;;;;;;1.00;0.70;;;;;;;;;;6215995;23;20001;-52
2021/06/11 11:03:50;;;;;;;2.55;0.90;;;;;;;;;;6216021;23;20422;-52
2021/06/11 11:06:27;;;;;;;1.17;0.63;;;;;;;;;;6216036;23;20008;-52
2021/06/11 11:08:56;;;;;;;1.87;0.83;;;;;;;;;;6216001;23;20090;-51
2021/06/11 11:11:33;;;;;;;1.50;0.67;;;;;;;;;;6216072;23;20005;-51
2021/06/11 11:14:00;;;;;;;2.03;0.70;;;;;;;;;;6215807;23;20382;-52
2021/06/11 11:16:28;;;;;;;0.87;0.63;;;;;;;;;;6216310;23;20415;-51
2021/06/11 11:18:56;;;;;;;2.10;0.90;;;;;;;;;;6215864;23;20000;-51
2021/06/11 11:21:28;;;;;;;1.47;0.53;;;;;;;;;;6215937;23;20072;-52
2021/06/11 11:23:59;;;;;;;1.33;0.70;;;;;;;;;;6216024;23;20004;-52
2021/06/11 11:26:43;;;;;;;1.33;0.60;;;;;;;;;;6215900;23;20158;-52
2021/06/11 11:29:10;;;;;;;0.73;0.50;;;;;;;;;;6216031;23;20005;-52
2021/06/11 11:31:37;;;;;;;1.30;0.80;;;;;;;;;;6215707;23;20009;-51
2021/06/11 11:34:04;;;;;;;1.27;0.70;;;;;;;;;;6215673;23;20012;-52
2021/06/11 11:36:32;;;;;;;1.07;0.63;;;;;;;;;;6215843;23;20008;-52
2021/06/11 11:38:59;;;;;;;2.87;0.70;;;;;;;;;;6215763;23;20012;-52
2021/06/11 11:41:26;;;;;;;1.23;0.63;;;;;;;;;;6215517;23;20438;-52
2021/06/11 11:43:53;;;;;;;1.50;0.70;;;;;;;;;;6215747;23;19997;-52
2021/06/11 11:46:20;;;;;;;1.60;0.63;;;;;;;;;;6215431;23;20087;-52
2021/06/11 11:48:46;;;;;;;2.00;0.63;;;;;;;;;;6215702;23;20001;-51
2021/06/11 11:51:13;;;;;;;1.87;0.70;;;;;;;;;;6215617;23;19996;-50
2021/06/11 11:53:40;;;;;;;1.03;0.60;;;;;;;;;;6215471;23;20023;-51
2021/06/11 11:56:07;;;;;;;1.43;0.60;;;;;;;;;;6215556;23;20001;-51
2021/06/11 11:58:34;;;;;;;1.23;0.60;;;;;;;;;;6215523;23;20019;-52
2021/06/11 12:01:01;;;;;;;1.53;0.70;;;;;;;;;;6215511;23;20025;-51
2021/06/11 12:03:28;;;;;;;1.47;0.80;;;;;;;;;;6215511;23;20009;-53
2021/06/11 12:05:55;;;;;;;1.60;0.90;;;;;;;;;;6215439;23;20024;-52
2021/06/11 12:08:22;;;;;;;2.30;0.90;;;;;;;;;;6215555;23;20027;-51
2021/06/11 12:10:48;;;;;;;2.40;0.80;;;;;;;;;;6215321;23;20079;-52
2021/06/11 12:13:15;;;;;;;3.23;0.80;;;;;;;;;;6215411;23;20096;-52
2021/06/11 12:15:43;;;;;;;0.43;0.40;;;;;;;;;;6215446;23;20005;-52
2021/06/11 12:18:10;;;;;;;0.60;0.50;;;;;;;;;;6215410;23;20015;-52
2021/06/11 12:20:37;;;;;;;1.13;0.50;;;;;;;;;;6215499;23;20412;-52
2021/06/11 12:23:04;;;;;;;0.97;0.60;;;;;;;;;;6215224;23;20000;-52
2021/06/11 12:25:31;;;;;;;1.23;0.80;;;;;;;;;;6215229;23;20004;-52
2021/06/11 12:27:58;;;;;;;1.93;0.73;;;;;;;;;;6215289;23;20080;-52
2021/06/11 12:30:25;;;;;;;3.37;0.80;;;;;;;;;;6215342;23;20011;-52
2021/06/11 12:32:52;;;;;;;1.20;0.70;;;;;;;;;;6215051;23;20071;-52
2021/06/11 12:35:19;;;;;;;2.97;0.80;;;;;;;;;;6213680;23;20420;-53
2021/06/11 12:37:46;;;;;;;1.43;0.70;;;;;;;;;;6215265;23;20009;-53
2021/06/11 12:40:14;;;;;;;0.83;0.70;;;;;;;;;;6215364;23;20001;-53
2021/06/11 12:42:45;;;;;;;0.87;0.50;;;;;;;;;;6215179;23;20332;-52
2021/06/11 12:45:25;;;;;;;1.37;0.90;;;;;;;;;;6214829;22;20051;-52
2021/06/11 12:47:53;;;;;;;2.47;1.73;;;;;;;;;;6215302;23;20364;-52
2021/06/11 12:50:20;;;;;;;2.17;0.77;;;;;;;;;;6215578;23;20015;-53
2021/06/11 12:52:49;;;;;;;4.53;0.80;;;;;;;;;;6215052;23;20012;-52
2021/06/11 12:55:15;;;;;;;2.67;0.90;;;;;;;;;;6215300;23;20001;-52
2021/06/11 12:57:42;;;;;;;2.07;0.90;;;;;;;;;;6215132;23;20331;-52
2021/06/11 13:00:10;;;;;;;2.63;0.80;;;;;;;;;;6215105;23;20084;-52
2021/06/11 13:02:38;;;;;;;1.60;0.73;;;;;;;;;;6215110;23;20008;-52
2021/06/11 13:05:09;;;;;;;1.13;0.73;;;;;;;;;;6214200;23;20380;-53
2021/06/11 13:07:36;;;;;;;1.03;0.80;;;;;;;;;;6212983;23;20463;-53
2021/06/11 13:10:08;;;;;;;2.17;0.93;;;;;;;;;;6215122;23;20032;-53
2021/06/11 13:12:36;;;;;;;1.33;0.83;;;;;;;;;;6210055;23;20020;-52
2021/06/11 13:15:06;;;;;;;2.30;1.00;;;;;;;;;;6212840;23;20293;-53
2021/06/11 13:17:51;;;;;;;2.50;1.00;;;;;;;;;;6214640;23;20015;-53
2021/06/11 13:20:30;;;;;;;3.13;1.00;;;;;;;;;;6212291;23;20004;-52
2021/06/11 13:23:10;;;;;;;1.93;0.70;;;;;;;;;;6214576;23;20004;-52
2021/06/11 13:25:43;;;;;;;1.03;0.60;;;;;;;;;;6213148;23;20028;-53
2021/06/11 13:28:22;;;;;;;1.03;0.63;;;;;;;;;;6215112;23;20001;-53
2021/06/11 13:30:51;;;;;;;2.00;1.20;;;;;;;;;;6214403;23;20004;-53
2021/06/11 13:33:27;;;;;;;6.40;1.60;;;;;;;;;;6213489;23;20016;-52
2021/06/11 13:36:13;;;;;;;3.63;1.90;;;;;;;;;;6215729;23;20088;-53
2021/06/11 13:38:50;;;;;;;6.03;2.10;;;;;;;;;;6216691;23;20319;-53
2021/06/11 13:41:24;;;;;;;3.50;2.10;;;;;;;;;;6216386;23;20036;-53
2021/06/11 13:43:51;;;;;;;4.63;2.60;;;;;;;;;;6216581;23;20357;-53
2021/06/11 13:46:25;;;;;;;3.90;2.17;;;;;;;;;;6216356;22;20390;-53
2021/06/11 13:48:55;;;;;;;3.50;2.30;;;;;;;;;;6216708;23;20305;-53
2021/06/11 13:51:24;;;;;;;7.17;2.53;;;;;;;;;;6216210;23;20380;-52
2021/06/11 13:54:02;;;;;;;;;;;;;;;;;;;;;
2021/06/11 13:56:44;;;;;;;;;;;;;;;;;;;;;
2021/06/11 13:59:17;;;;;;;2.80;1.63;;;;;;;;;;6212424;23;20075;-53
2021/06/11 14:01:56;;;;;;;3.20;1.67;;;;;;;;;;6213680;23;20009;-53
2021/06/11 14:04:29;;;;;;;5.10;1.90;;;;;;;;;;6216382;23;20072;-52
2021/06/11 14:06:56;;;;;;;2.67;1.47;;;;;;;;;;6216153;23;20031;-52
2021/06/11 14:09:44;;;;;;;1.83;1.10;;;;;;;;;;6216591;23;20011;-52
2021/06/11 14:12:15;;;;;;;2.60;1.10;;;;;;;;;;6216478;23;20044;-53
2021/06/11 14:14:42;;;;;;;2.30;1.13;;;;;;;;;;6216315;23;20008;-52
2021/06/11 14:17:17;;;;;;;1.97;1.20;;;;;;;;;;6216534;23;20007;-53
2021/06/11 14:19:50;;;;;;;3.53;1.33;;;;;;;;;;6213955;23;20324;-53
2021/06/11 14:22:17;;;;;;;4.53;1.30;;;;;;;;;;6213816;23;20012;-53
2021/06/11 14:24:44;;;;;;;3.20;1.20;;;;;;;;;;6216383;23;20001;-52
2021/06/11 14:27:17;;;;;;;2.53;1.20;;;;;;;;;;6216406;23;20000;-53
2021/06/11 14:30:01;;;;;;;2.03;1.17;;;;;;;;;;6215257;23;20330;-53
2021/06/11 14:32:35;;;;;;;3.97;1.07;;;;;;;;;;6215897;23;20083;-53
2021/06/11 14:35:02;;;;;;;2.03;1.30;;;;;;;;;;6216113;23;20547;-52
2021/06/11 14:37:28;;;;;;;2.40;1.30;;;;;;;;;;6216335;23;20333;-53
2021/06/11 14:39:55;;;;;;;2.40;1.50;;;;;;;;;;6216225;23;20300;-53
2021/06/11 14:42:22;;;;;;;3.30;1.17;;;;;;;;;;6216246;23;20000;-53
2021/06/11 14:44:49;;;;;;;3.57;1.30;;;;;;;;;;6215911;23;20004;-53
2021/06/11 14:47:16;;;;;;;2.20;1.27;;;;;;;;;;6216561;23;20071;-53
2021/06/11 14:49:48;;;;;;;3.10;1.27;;;;;;;;;;6216174;23;20016;-53
2021/06/11 14:52:21;;;;;;;2.87;1.80;;;;;;;;;;6215406;23;20071;-53
2021/06/11 14:55:01;;;;;;;3.10;1.87;;;;;;;;;;6216237;23;20000;-53
2021/06/11 14:57:29;;;;;;;3.63;2.13;;;;;;;;;;6214912;23;20004;-53
2021/06/11 15:00:01;;;;;;;6.57;3.37;;;;;;;;;;6216031;23;20031;-53
2021/06/11 15:02:27;;;;;;;4.73;2.33;;;;;;;;;;6215999;23;20424;-53
2021/06/11 15:04:54;;;;;;;6.33;2.60;;;;;;;;;;6216364;23;20011;-53